createdAt,value
2019-03-22T00:00:36.763Z,24.77
2019-03-22T00:06:31.790Z,27.02
2019-03-22T00:12:26.795Z,28.1
2019-03-22T00:18:21.770Z,25.17
2019-03-22T00:24:16.775Z,22.33
2019-03-22T00:30:11.821Z,27.39
2019-03-22T00:36:06.794Z,28.33
2019-03-22T00:42:01.833Z,20.9
2019-03-22T00:47:56.800Z,25.07
2019-03-22T00:53:51.799Z,13.17
2019-03-22T00:59:46.844Z,32.6
2019-03-22T01:05:41.815Z,8.64
2019-03-22T01:11:36.805Z,20.14
2019-03-22T01:17:31.806Z,17.25
2019-03-22T01:23:26.821Z,24.91
2019-03-22T01:29:21.843Z,35.31
2019-03-22T01:35:16.831Z,22.74
2019-03-22T01:41:11.831Z,17
2019-03-22T01:47:06.848Z,12.21
2019-03-22T01:53:01.857Z,26.27
2019-03-22T01:58:56.869Z,25.12
2019-03-22T02:04:51.853Z,22.3
2019-03-22T02:10:46.836Z,7.53
2019-03-22T02:16:41.845Z,17.5
2019-03-22T02:22:36.869Z,21.14
2019-03-22T02:28:31.887Z,6.71
2019-03-22T02:34:26.865Z,16.3
2019-03-22T02:40:21.869Z,17.71
2019-03-22T02:46:16.871Z,3.65
2019-03-22T02:52:11.896Z,3.81
2019-03-22T02:58:19.612Z,3.23
2019-03-22T03:04:01.878Z,16.13
2019-03-22T03:09:56.903Z,3.57
2019-03-22T03:15:51.893Z,3
2019-03-22T03:21:46.895Z,2.76
2019-03-22T03:27:41.874Z,2.78
2019-03-22T03:33:36.897Z,2.78
2019-03-22T03:39:31.937Z,2.91
2019-03-22T03:45:26.972Z,2.92
2019-03-22T03:51:21.881Z,4.35
2019-03-22T03:57:16.901Z,3.03
2019-03-22T04:03:11.901Z,2.74
2019-03-22T04:09:06.932Z,2.81
2019-03-22T04:15:01.953Z,2.71
2019-03-22T04:20:56.970Z,2.77
2019-03-22T04:26:51.923Z,2.94
2019-03-22T04:32:46.969Z,2.72
2019-03-22T04:38:41.951Z,2.7
2019-03-22T04:44:36.939Z,3.02
2019-03-22T04:50:31.926Z,3.19
2019-03-22T04:56:26.975Z,3.65
2019-03-22T05:02:21.934Z,3.13
2019-03-22T05:08:16.956Z,3.07
2019-03-22T05:14:11.933Z,3.62
2019-03-22T05:20:06.957Z,3.03
2019-03-22T05:26:01.961Z,2.9
2019-03-22T05:31:56.972Z,2.67
2019-03-22T05:37:52.006Z,2.73
2019-03-22T05:43:46.953Z,4.56
2019-03-22T05:49:41.983Z,12.09
2019-03-22T05:55:36.967Z,3.83
2019-03-22T06:01:31.973Z,3
2019-03-22T06:07:26.967Z,2.94
2019-03-22T06:13:21.992Z,3.41
2019-03-22T06:19:17.000Z,3.31
2019-03-22T06:25:11.978Z,4.37
2019-03-22T06:31:07.004Z,3.75
2019-03-22T06:37:02.065Z,3.41
2019-03-22T06:42:58.939Z,9.17
2019-03-22T06:48:52.003Z,8.1
2019-03-22T06:54:47.023Z,4.96
2019-03-22T07:00:41.992Z,3.88
2019-03-22T07:06:37.029Z,5.22
2019-03-22T07:12:32.000Z,4.41
2019-03-22T07:18:27.011Z,5.36
2019-03-22T07:24:22.017Z,4.1
2019-03-22T07:30:18.773Z,4.3
2019-03-22T07:36:12.031Z,3.79
2019-03-22T07:42:07.012Z,11.65
2019-03-22T07:48:02.048Z,10.13
2019-03-22T07:53:57.024Z,8.94
2019-03-22T07:59:52.043Z,5.71
2019-03-22T08:05:51.362Z,4.5
2019-03-22T08:11:42.042Z,4.09
2019-03-22T08:17:37.066Z,8.1
2019-03-22T08:23:32.035Z,7.69
2019-03-22T08:29:27.066Z,5.03
2019-03-22T08:35:22.163Z,6.35
2019-03-22T08:41:17.093Z,4.9
2019-03-22T08:47:12.089Z,6.22
2019-03-22T08:53:07.057Z,6.28
2019-03-22T08:59:02.059Z,4.87
2019-03-22T09:04:57.093Z,5.25
2019-03-22T09:10:52.077Z,5.64
2019-03-22T09:16:47.117Z,5.74
2019-03-22T09:22:42.102Z,6.01
2019-03-22T09:28:37.082Z,6.03
2019-03-22T09:34:33.827Z,6.3
2019-03-22T09:40:27.135Z,6.54
2019-03-22T09:46:22.102Z,7.96
2019-03-22T09:52:17.126Z,7.55
2019-03-22T09:58:12.087Z,7.4
2019-03-22T10:04:07.146Z,7.88
2019-03-22T10:10:02.130Z,6.87
2019-03-22T10:15:57.135Z,7.07
2019-03-22T10:21:52.161Z,7.77
2019-03-22T10:27:47.133Z,7.42
2019-03-22T10:33:42.099Z,8.12
2019-03-22T10:39:37.134Z,7.97
2019-03-22T10:45:32.166Z,7.69
2019-03-22T10:51:27.155Z,7.42
2019-03-22T10:57:22.149Z,7.8
2019-03-22T11:03:17.166Z,7.13
2019-03-22T11:09:12.144Z,7.49
2019-03-22T11:15:07.162Z,7.5
2019-03-22T11:21:05.320Z,7
2019-03-22T11:26:57.157Z,6.9
2019-03-22T11:32:52.182Z,7.18
2019-03-22T11:38:47.150Z,7.23
2019-03-22T11:44:42.198Z,7.01
2019-03-22T11:50:37.170Z,7.44
2019-03-22T11:56:32.165Z,6.91
2019-03-22T12:02:27.151Z,7.31
2019-03-22T12:08:22.180Z,7.05
2019-03-22T12:14:17.149Z,7.57
2019-03-22T12:20:12.232Z,8.13
2019-03-22T12:26:07.168Z,7.62
2019-03-22T12:32:02.179Z,8.11
2019-03-22T12:37:57.791Z,8.23
2019-03-22T12:43:52.203Z,8.33
2019-03-22T12:49:47.242Z,9.05
2019-03-22T12:55:42.195Z,7.72
2019-03-22T13:01:37.227Z,9.13
2019-03-22T13:07:32.199Z,9.25
2019-03-22T13:13:27.204Z,8.67
2019-03-22T13:19:22.224Z,8.56
2019-03-22T13:25:17.227Z,9.07
2019-03-22T13:31:12.221Z,9.45
2019-03-22T13:37:07.215Z,9.03
2019-03-22T13:43:02.229Z,9.14
2019-03-22T13:48:57.242Z,9.25
2019-03-22T13:54:52.209Z,8.98
2019-03-22T14:00:47.222Z,9.22
2019-03-22T14:06:42.245Z,9.98
2019-03-22T14:12:37.438Z,10.06
2019-03-22T14:18:32.594Z,8.88
2019-03-22T14:24:27.278Z,9.93
2019-03-22T14:30:22.235Z,10.42
2019-03-22T14:36:17.253Z,9.37
2019-03-22T14:42:12.238Z,10.43
2019-03-22T14:48:07.282Z,9.24
2019-03-22T14:54:02.265Z,10.11
2019-03-22T14:59:58.992Z,10.33
2019-03-22T15:05:52.257Z,10.69
2019-03-22T15:11:47.268Z,9.79
2019-03-22T15:17:42.275Z,6.66
2019-03-22T15:23:37.278Z,10.37
2019-03-22T15:29:32.291Z,9.49
2019-03-22T15:35:27.309Z,9.79
2019-03-22T15:41:22.308Z,9.27
2019-03-22T15:47:17.340Z,9.72
2019-03-22T15:53:12.331Z,9.22
2019-03-22T15:59:07.307Z,10.2
2019-03-22T16:05:02.345Z,10.74
2019-03-22T16:10:57.283Z,9.75
2019-03-22T16:16:52.319Z,9.03
2019-03-22T16:22:47.301Z,8.49
2019-03-22T16:28:42.329Z,9.98
2019-03-22T16:34:37.311Z,13.01
2019-03-22T16:40:32.362Z,9.75
2019-03-22T16:46:27.340Z,10.95
2019-03-22T16:52:22.352Z,8.88
2019-03-22T16:58:17.341Z,10.8
2019-03-22T17:04:12.354Z,10.13
2019-03-22T17:10:07.377Z,10.37
2019-03-22T17:16:02.333Z,10.23
2019-03-22T17:21:57.417Z,10.28
2019-03-22T17:27:52.409Z,9.68
2019-03-22T17:33:47.375Z,11.1
2019-03-22T17:39:42.354Z,10.01
2019-03-22T17:45:37.369Z,9.59
2019-03-22T17:51:32.433Z,9.92
2019-03-22T17:57:27.372Z,9.76
2019-03-22T18:03:22.392Z,9.35
2019-03-22T18:09:17.392Z,11.66
2019-03-22T18:15:12.392Z,11.42
2019-03-22T18:21:07.378Z,10.94
2019-03-22T18:27:02.377Z,16.04
2019-03-22T18:32:57.363Z,11.72
2019-03-22T18:38:52.417Z,11.1
2019-03-22T18:44:47.386Z,10.74
2019-03-22T18:50:42.432Z,13
2019-03-22T18:56:37.402Z,11.24
2019-03-22T19:02:32.396Z,11.66
2019-03-22T19:08:27.454Z,14.31
2019-03-22T19:14:22.401Z,13.07
2019-03-22T19:20:17.392Z,11.45
2019-03-22T19:26:12.413Z,13.37
2019-03-22T19:32:13.204Z,13.88
2019-03-22T19:38:02.438Z,12.21
2019-03-22T19:43:57.467Z,18.17
2019-03-22T19:49:52.433Z,16.12
2019-03-22T19:55:47.434Z,16.63
2019-03-22T20:01:42.495Z,13.75
2019-03-22T20:07:37.542Z,13.99
2019-03-22T20:13:32.437Z,17.38
2019-03-22T20:19:27.461Z,14
2019-03-22T20:25:22.454Z,12.66
2019-03-22T20:31:17.451Z,11.8
2019-03-22T20:37:12.438Z,13.72
2019-03-22T20:43:07.459Z,12.36
2019-03-22T20:49:02.454Z,13.43
2019-03-22T20:54:57.452Z,12.29
2019-03-22T21:00:52.494Z,12.02
2019-03-22T21:06:47.485Z,16.17
2019-03-22T21:12:42.468Z,12.87
2019-03-22T21:18:37.503Z,11.51
2019-03-22T21:24:32.499Z,10.72
2019-03-22T21:30:27.484Z,10.29
2019-03-22T21:36:22.556Z,10.81
2019-03-22T21:42:17.520Z,11.63
2019-03-22T21:48:12.499Z,10.05
2019-03-22T21:54:07.527Z,9.32
2019-03-22T22:00:02.533Z,10.16
2019-03-22T22:05:57.502Z,12.02
2019-03-22T22:11:52.498Z,13.86
2019-03-22T22:17:47.528Z,14.12
2019-03-22T22:23:42.528Z,11.77
2019-03-22T22:29:37.502Z,10.3
2019-03-22T22:35:32.518Z,8.06
2019-03-22T22:41:27.501Z,7.79
2019-03-22T22:47:22.518Z,8.92
2019-03-22T22:53:17.529Z,8.47
2019-03-22T22:59:12.524Z,10.1
2019-03-22T23:05:07.528Z,10.25
2019-03-22T23:11:02.548Z,8.43
2019-03-22T23:16:57.530Z,9.9
2019-03-22T23:22:52.611Z,9.01
2019-03-22T23:28:47.536Z,9.8
2019-03-22T23:34:42.565Z,9.03
2019-03-22T23:40:37.534Z,9.09
2019-03-22T23:46:32.544Z,8.61
2019-03-22T23:52:27.549Z,7.94
2019-03-22T23:58:22.548Z,8.7
